Time;durP1;ratioP1;P1;durP2;ratioP2;P2;SDS_P1;SDS_P2;PMS_P1;PMS_P2;Temp;Humidity;BMP_temperature;BMP_pressure;BME280_temperature;BME280_humidity;BME280_pressure;Samples;Min_cycle;Max_cycle;Signal;HPM_P1;HPM_P2
2022/05/01 00:02:17;;;;;;;38.88;21.33;;;;;;;7.27;50.21;98931.56;5053137;28;20041;-70
2022/05/01 00:04:43;;;;;;;34.40;20.20;;;;;;;7.26;49.93;98923.63;5052361;28;20028;-68
2022/05/01 00:07:12;;;;;;;39.15;20.88;;;;;;;7.19;50.10;98932.03;5050564;28;20070;-69
2022/05/01 00:09:39;;;;;;;35.90;20.83;;;;;;;7.08;50.23;98925.69;5050154;28;20116;-69
2022/05/01 00:12:07;;;;;;;33.45;18.05;;;;;;;6.99;50.25;98924.53;5051281;28;20275;-69
2022/05/01 00:14:33;;;;;;;36.70;20.02;;;;;;;6.96;50.42;98923.13;5048965;28;20029;-69
2022/05/01 00:16:58;;;;;;;34.53;19.17;;;;;;;6.95;50.56;98917.97;5050896;28;20025;-69
2022/05/01 00:19:23;;;;;;;36.72;19.98;;;;;;;6.93;50.57;98920.13;5052234;28;20525;-69
2022/05/01 00:21:49;;;;;;;35.28;19.45;;;;;;;6.90;50.68;98924.22;5049896;28;20106;-69
2022/05/01 00:24:14;;;;;;;31.00;18.40;;;;;;;6.83;50.94;98918.16;5050166;28;20021;-69
2022/05/01 00:26:40;;;;;;;32.38;18.10;;;;;;;6.78;51.16;98918.09;5051525;28;20461;-69
2022/05/01 00:29:06;;;;;;;32.58;18.15;;;;;;;6.74;50.79;98917.78;5051569;28;20028;-69
2022/05/01 00:31:32;;;;;;;34.05;19.50;;;;;;;6.71;50.85;98915.59;5051522;28;20017;-70
2022/05/01 00:36:41;;;;;;;31.77;19.20;;;;;;;6.67;50.85;98915.28;5051475;28;20443;-69
2022/05/01 00:39:08;;;;;;;28.95;17.75;;;;;;;6.64;50.86;98915.00;5051355;28;20025;-69
2022/05/01 00:41:35;;;;;;;32.15;18.75;;;;;;;6.58;50.85;98907.84;5051672;28;20053;-69
2022/05/01 00:44:10;;;;;;;30.83;18.90;;;;;;;6.53;51.28;98912.16;5046827;28;20734;-69
2022/05/01 00:46:41;;;;;;;30.80;18.50;;;;;;;6.48;51.50;98905.84;5049979;28;20175;-69
2022/05/01 00:49:09;;;;;;;35.60;20.17;;;;;;;6.46;51.17;98906.09;5049587;28;20035;-69
2022/05/01 00:51:46;;;;;;;36.55;19.33;;;;;;;6.45;51.70;98901.72;5051541;28;20036;-69
2022/05/01 00:54:12;;;;;;;39.45;22.90;;;;;;;6.45;51.26;98900.91;5049846;28;20536;-69
2022/05/01 00:56:43;;;;;;;46.35;26.33;;;;;;;6.42;51.48;98895.97;5050766;28;20104;-69
2022/05/01 00:59:10;;;;;;;80.72;40.60;;;;;;;6.39;51.43;98894.56;5048985;28;20029;-70
2022/05/01 01:01:36;;;;;;;56.08;29.90;;;;;;;6.37;51.42;98903.03;5050805;28;20063;-69
2022/05/01 01:04:01;;;;;;;52.03;27.15;;;;;;;6.35;52.11;98898.91;5049786;28;20029;-69
2022/05/01 01:06:29;;;;;;;38.92;23.48;;;;;;;6.32;51.93;98900.25;5050450;28;20032;-69
2022/05/01 01:08:55;;;;;;;42.92;23.30;;;;;;;6.32;52.22;98899.41;5047813;28;20052;-69
2022/05/01 01:11:20;;;;;;;40.35;21.77;;;;;;;6.31;51.59;98897.78;5048642;28;20013;-69
2022/05/01 01:13:49;;;;;;;38.47;22.10;;;;;;;6.28;51.95;98898.31;5050856;28;20469;-69
2022/05/01 01:16:15;;;;;;;41.47;22.70;;;;;;;6.25;51.99;98900.47;5049545;28;20041;-69
2022/05/01 01:18:40;;;;;;;37.67;21.75;;;;;;;6.21;52.01;98909.38;5051039;28;20162;-69
2022/05/01 01:21:09;;;;;;;37.65;22.17;;;;;;;6.17;51.90;98906.34;5050772;28;20032;-69
2022/05/01 01:23:35;;;;;;;36.42;22.20;;;;;;;6.13;52.06;98901.66;5050335;28;20396;-69
2022/05/01 01:26:01;;;;;;;38.72;21.13;;;;;;;6.08;52.25;98908.72;5050070;28;20032;-69
2022/05/01 01:28:27;;;;;;;37.72;22.42;;;;;;;6.06;52.84;98907.31;5049956;28;20040;-68
2022/05/01 01:33:37;;;;;;;41.33;23.35;;;;;;;6.10;52.96;98900.28;5049150;28;20103;-69
2022/05/01 01:36:03;;;;;;;39.42;23.27;;;;;;;6.12;52.73;98906.31;5049535;28;20033;-69
2022/05/01 01:38:30;;;;;;;40.60;23.08;;;;;;;6.11;53.02;98891.84;5049742;28;20048;-68
2022/05/01 01:40:58;;;;;;;41.30;23.55;;;;;;;6.15;53.18;98900.34;5050118;28;20079;-69
2022/05/01 01:43:25;;;;;;;41.65;23.73;;;;;;;6.16;53.40;98892.97;5050935;28;20385;-68
2022/05/01 01:45:51;;;;;;;43.20;22.75;;;;;;;6.20;52.73;98902.28;5047601;28;20130;-69
2022/05/01 01:48:20;;;;;;;35.97;21.25;;;;;;;6.20;53.28;98899.56;5049699;28;20025;-68
2022/05/01 01:50:59;;;;;;;37.83;21.27;;;;;;;6.23;52.68;98896.34;5050356;28;20032;-69
2022/05/01 01:53:26;;;;;;;40.03;22.00;;;;;;;6.27;53.30;98891.22;5047533;28;20500;-68
2022/05/01 01:55:52;;;;;;;40.78;22.33;;;;;;;6.32;53.06;98893.97;5049326;28;20455;-69
2022/05/01 01:58:19;;;;;;;39.70;21.98;;;;;;;6.36;53.21;98901.38;5048349;28;20614;-68
2022/05/01 02:00:45;;;;;;;37.03;21.48;;;;;;;6.43;53.27;98895.72;5048499;28;20713;-69
2022/05/01 02:03:11;;;;;;;36.95;21.60;;;;;;;6.44;53.07;98900.06;5049009;28;20025;-69
2022/05/01 02:05:36;;;;;;;35.90;21.15;;;;;;;6.47;53.25;98896.84;5048782;28;20036;-69
2022/05/01 02:08:03;;;;;;;41.40;21.98;;;;;;;6.50;53.37;98895.53;5046134;28;20104;-69
2022/05/01 02:10:29;;;;;;;39.15;21.73;;;;;;;6.48;53.44;98892.22;5051305;28;20025;-70
2022/05/01 02:12:55;;;;;;;38.88;21.92;;;;;;;6.43;53.46;98898.44;5051069;28;20028;-69
2022/05/01 02:15:21;;;;;;;39.25;21.45;;;;;;;6.40;53.68;98894.34;5050146;28;20029;-72
2022/05/01 02:17:49;;;;;;;40.78;22.00;;;;;;;6.37;53.56;98888.56;5051312;28;20531;-72
2022/05/01 02:20:16;;;;;;;41.65;22.52;;;;;;;6.35;53.32;98888.84;5051139;28;20031;-70
2022/05/01 02:22:42;;;;;;;40.17;22.30;;;;;;;6.34;53.08;98886.34;5051216;28;20017;-70
2022/05/01 02:25:09;;;;;;;45.53;23.00;;;;;;;6.35;53.59;98888.00;5049149;28;20052;-70
2022/05/01 02:27:36;;;;;;;44.53;22.95;;;;;;;6.34;53.35;98889.91;5050584;28;20528;-70
2022/05/01 02:30:01;;;;;;;37.78;21.33;;;;;;;6.32;53.63;98896.69;5050814;28;20388;-69
2022/05/01 02:32:27;;;;;;;37.55;21.40;;;;;;;6.27;53.59;98897.47;5050797;28;20024;-70
2022/05/01 02:34:52;;;;;;;36.42;21.15;;;;;;;6.25;53.70;98894.19;5048715;28;20151;-70
2022/05/01 02:37:17;;;;;;;41.92;21.70;;;;;;;6.25;53.32;98891.44;5050534;28;20029;-70
2022/05/01 02:39:43;;;;;;;40.83;22.15;;;;;;;6.25;53.55;98891.44;5050722;28;20028;-70
2022/05/01 02:42:09;;;;;;;34.25;20.55;;;;;;;6.24;53.66;98881.63;5050015;28;20032;-69
2022/05/01 02:44:35;;;;;;;38.55;21.48;;;;;;;6.18;53.94;98879.94;5049062;28;20021;-69
2022/05/01 02:47:00;;;;;;;37.90;21.75;;;;;;;6.16;53.64;98890.25;5050362;28;20029;-70
2022/05/01 02:49:26;;;;;;;35.55;20.00;;;;;;;6.14;54.12;98884.25;5050500;28;20032;-70
2022/05/01 02:51:53;;;;;;;40.40;21.55;;;;;;;6.11;54.00;98886.41;5050235;28;20469;-68
2022/05/01 02:54:22;;;;;;;38.75;20.58;;;;;;;6.12;54.20;98889.97;5047428;28;20044;-69
2022/05/01 02:56:49;;;;;;;35.08;20.83;;;;;;;6.11;54.09;98883.69;5047723;28;20098;-69
2022/05/01 02:59:15;;;;;;;36.75;21.55;;;;;;;6.12;54.70;98881.78;5050104;28;20021;-69
2022/05/01 03:01:41;;;;;;;36.33;20.65;;;;;;;6.10;54.36;98884.78;5050423;28;20053;-69
2022/05/01 03:04:06;;;;;;;38.58;21.75;;;;;;;6.10;54.54;98886.66;5048991;28;20129;-69
2022/05/01 03:06:33;;;;;;;41.72;22.73;;;;;;;6.05;54.50;98882.00;5049257;28;20037;-69
2022/05/01 03:08:59;;;;;;;39.08;22.48;;;;;;;6.02;54.09;98885.25;5050497;28;20029;-69
2022/05/01 03:11:24;;;;;;;50.33;27.42;;;;;;;6.00;54.29;98886.53;5050427;28;20021;-69
2022/05/01 03:13:51;;;;;;;61.15;34.22;;;;;;;6.01;54.31;98888.19;5047961;28;20119;-69
2022/05/01 03:16:16;;;;;;;61.67;32.60;;;;;;;5.99;54.86;98888.44;5049518;28;20029;-69
2022/05/01 03:24:11;;;;;;;52.45;28.73;;;;;;;5.86;55.29;98891.53;5053577;28;20035;-69
2022/05/01 03:26:37;;;;;;;50.63;26.33;;;;;;;5.84;54.93;98885.53;5052907;28;20036;-69
2022/05/01 03:29:02;;;;;;;45.00;25.48;;;;;;;5.82;55.30;98892.06;5053074;28;20021;-68
2022/05/01 03:31:28;;;;;;;52.13;25.42;;;;;;;5.82;54.79;98892.06;5053773;28;20033;-69
2022/05/01 03:33:54;;;;;;;52.72;26.88;;;;;;;5.81;55.04;98884.97;5053451;28;20393;-69
2022/05/01 03:36:20;;;;;;;49.03;24.75;;;;;;;5.82;54.79;98889.31;5052613;28;21514;-69
2022/05/01 03:38:46;;;;;;;48.20;25.30;;;;;;;5.82;55.54;98892.06;5054130;28;20428;-69
2022/05/01 03:41:16;;;;;;;49.15;25.60;;;;;;;5.81;54.84;98893.13;5053692;28;20028;-69
2022/05/01 03:43:42;;;;;;;52.53;25.98;;;;;;;5.76;55.02;98894.97;5053479;28;20033;-69
2022/05/01 03:46:08;;;;;;;58.75;30.13;;;;;;;5.74;55.45;98892.50;5052002;28;20101;-70
2022/05/01 03:48:35;;;;;;;54.00;28.02;;;;;;;5.72;55.39;98883.75;5053509;28;20054;-69
2022/05/01 03:51:00;;;;;;;56.63;29.02;;;;;;;5.72;55.72;98891.91;5052445;28;20044;-70
2022/05/01 03:53:26;;;;;;;62.60;32.03;;;;;;;5.71;55.38;98892.19;5053370;28;20395;-70
2022/05/01 03:55:52;;;;;;;58.22;29.50;;;;;;;5.70;55.81;98888.66;5053063;28;20029;-69
2022/05/01 03:58:21;;;;;;;59.10;30.60;;;;;;;5.74;55.63;98886.25;5051120;28;20037;-70
2022/05/01 04:00:47;;;;;;;61.78;31.20;;;;;;;5.82;55.71;98892.06;5053702;28;20028;-70
2022/05/01 04:03:18;;;;;;;62.22;30.65;;;;;;;5.90;55.60;98887.25;5051439;28;20116;-69
2022/05/01 04:05:44;;;;;;;56.03;28.55;;;;;;;5.99;55.77;98890.31;5052221;28;20025;-69
2022/05/01 04:08:10;;;;;;;55.45;28.65;;;;;;;6.04;55.62;98891.25;5053141;28;20036;-70
2022/05/01 04:10:41;;;;;;;54.83;27.50;;;;;;;6.09;56.01;98891.31;5051584;28;20033;-69
2022/05/01 04:13:07;;;;;;;56.60;30.10;;;;;;;6.15;55.78;98891.34;5053541;28;20025;-70
2022/05/01 04:15:33;;;;;;;52.83;28.35;;;;;;;6.22;55.77;98890.06;5052558;28;20020;-70
2022/05/01 04:17:58;;;;;;;52.80;29.27;;;;;;;6.29;56.10;98889.84;5053235;28;20036;-70
2022/05/01 04:20:25;;;;;;;53.90;29.40;;;;;;;6.37;55.57;98894.84;5053372;28;20709;-70
2022/05/01 04:22:51;;;;;;;50.05;28.23;;;;;;;6.45;55.76;98892.75;5053417;28;20075;-69
2022/05/01 04:25:19;;;;;;;52.00;29.10;;;;;;;6.56;55.77;98891.72;5052583;28;20036;-70
2022/05/01 04:27:47;;;;;;;51.28;29.13;;;;;;;6.68;56.21;98900.56;5052753;28;20035;-70
2022/05/01 04:30:14;;;;;;;53.13;29.40;;;;;;;6.78;56.49;98896.28;5048543;28;20051;-70
2022/05/01 04:32:53;;;;;;;52.38;28.80;;;;;;;6.89;55.53;98894.47;5053011;28;20025;-70
2022/05/01 04:35:31;;;;;;;49.20;27.52;;;;;;;7.02;55.70;98901.38;5052367;28;20060;-70
2022/05/01 04:38:00;;;;;;;47.47;27.52;;;;;;;7.11;55.81;98894.34;5052503;28;20060;-69
2022/05/01 04:40:28;;;;;;;46.23;26.20;;;;;;;7.22;55.63;98897.94;5050839;28;20389;-70
2022/05/01 04:43:02;;;;;;;47.55;28.17;;;;;;;7.29;55.27;98896.66;5052800;28;20275;-70
2022/05/01 04:45:29;;;;;;;45.38;27.35;;;;;;;7.36;55.83;98893.69;5051513;28;20123;-70
2022/05/01 04:47:55;;;;;;;41.28;24.90;;;;;;;7.45;55.46;98900.28;5051886;28;20044;-70
2022/05/01 04:50:20;;;;;;;45.80;26.27;;;;;;;7.53;55.60;98898.94;5052181;28;20029;-70
2022/05/01 04:52:45;;;;;;;45.05;25.05;;;;;;;7.65;55.28;98895.19;5051464;28;20025;-70
2022/05/01 04:55:11;;;;;;;43.70;26.63;;;;;;;7.77;55.24;98898.50;5049047;28;20657;-69
2022/05/01 04:57:40;;;;;;;43.05;23.95;;;;;;;7.84;55.05;98901.81;5052724;28;20033;-70
2022/05/01 05:00:07;;;;;;;41.65;23.88;;;;;;;7.86;54.94;98893.38;5052284;28;20029;-69
2022/05/01 05:02:41;;;;;;;41.00;23.00;;;;;;;7.86;55.00;98896.91;5051638;28;20033;-69
2022/05/01 05:05:09;;;;;;;39.00;22.63;;;;;;;7.90;55.04;98894.47;5051482;28;20025;-69
2022/05/01 05:07:36;;;;;;;40.40;23.73;;;;;;;7.97;55.42;98894.22;5052439;28;20055;-70
2022/05/01 05:10:02;;;;;;;41.13;24.73;;;;;;;8.08;55.16;98892.31;5052033;28;20021;-70
2022/05/01 05:12:27;;;;;;;35.85;21.58;;;;;;;8.15;54.88;98893.69;5052130;28;20031;-70
2022/05/01 05:14:55;;;;;;;37.25;21.45;;;;;;;8.16;54.90;98891.81;5051205;28;20029;-70
2022/05/01 05:17:21;;;;;;;35.05;21.20;;;;;;;8.20;54.96;98904.66;5052254;28;20025;-70
2022/05/01 05:19:48;;;;;;;40.15;22.00;;;;;;;8.33;55.03;98900.59;5051108;28;20036;-70
2022/05/01 05:22:14;;;;;;;34.33;20.77;;;;;;;8.42;55.16;98898.16;5051974;28;20111;-69
2022/05/01 05:24:40;;;;;;;32.15;19.50;;;;;;;8.51;54.94;98912.13;5049766;28;20055;-70
2022/05/01 05:27:06;;;;;;;36.60;20.25;;;;;;;8.58;54.85;98906.38;5051770;28;20036;-70
2022/05/01 05:29:32;;;;;;;34.90;20.50;;;;;;;8.64;54.63;98911.59;5052099;28;20025;-70
2022/05/01 05:31:57;;;;;;;36.63;21.20;;;;;;;8.71;54.28;98918.72;5048071;28;20122;-70
2022/05/01 05:34:23;;;;;;;35.33;21.00;;;;;;;8.79;54.47;98916.25;5049344;28;20086;-71
2022/05/01 05:36:50;;;;;;;35.83;21.85;;;;;;;8.89;54.71;98922.81;5051492;28;20107;-70
2022/05/01 05:39:15;;;;;;;36.15;20.50;;;;;;;9.00;54.50;98918.97;5051278;28;20033;-70
2022/05/01 05:41:41;;;;;;;33.42;19.73;;;;;;;9.14;54.42;98915.69;5051892;28;20036;-70
2022/05/01 05:44:06;;;;;;;35.03;19.63;;;;;;;9.24;54.41;98910.22;5049762;28;20844;-70
2022/05/01 05:46:32;;;;;;;39.55;21.75;;;;;;;9.33;54.66;98919.50;5049239;28;20547;-70
2022/05/01 05:48:58;;;;;;;39.35;21.65;;;;;;;9.50;54.48;98921.09;5051578;28;20108;-70
2022/05/01 05:51:23;;;;;;;36.35;21.45;;;;;;;9.67;54.88;98918.03;5051248;28;20025;-70
2022/05/01 05:53:53;;;;;;;40.88;23.00;;;;;;;9.79;54.14;98912.22;5050904;28;20488;-70
2022/05/01 05:56:19;;;;;;;36.13;20.20;;;;;;;9.92;53.63;98922.59;5049719;28;20520;-70
2022/05/01 05:58:44;;;;;;;43.53;24.48;;;;;;;9.96;53.95;98922.88;5051278;28;20036;-71
2022/05/01 06:01:10;;;;;;;43.67;26.17;;;;;;;9.96;53.48;98923.69;5050315;28;20535;-70
2022/05/01 06:03:36;;;;;;;36.13;20.85;;;;;;;9.99;53.85;98916.81;5052724;28;20031;-70
2022/05/01 06:06:03;;;;;;;41.33;22.83;;;;;;;10.00;54.10;98914.91;5052952;28;20033;-70
2022/05/01 06:08:28;;;;;;;38.40;22.13;;;;;;;10.02;54.11;98918.97;5054880;28;20036;-70
2022/05/01 06:10:54;;;;;;;36.45;23.08;;;;;;;10.07;53.73;98918.97;5050333;28;20021;-70
2022/05/01 06:13:19;;;;;;;37.53;22.05;;;;;;;10.18;53.80;98916.19;5050519;28;20485;-71
2022/05/01 06:15:45;;;;;;;39.92;22.13;;;;;;;10.36;54.06;98923.75;5050891;28;20465;-71
2022/05/01 06:18:10;;;;;;;36.67;21.50;;;;;;;10.54;54.09;98922.31;5050728;28;20033;-70
2022/05/01 06:20:37;;;;;;;29.23;17.83;;;;;;;10.70;53.98;98919.44;5050340;28;20052;-71
2022/05/01 06:23:02;;;;;;;31.98;19.92;;;;;;;10.79;53.64;98920.47;5051024;28;20532;-70
2022/05/01 06:25:28;;;;;;;33.47;20.38;;;;;;;10.87;53.01;98910.78;5050910;28;20108;-70
2022/05/01 06:27:53;;;;;;;29.10;18.63;;;;;;;10.90;53.42;98914.91;5050636;28;20112;-71
2022/05/01 06:30:19;;;;;;;26.40;17.35;;;;;;;10.96;53.62;98916.50;5048505;28;20469;-70
2022/05/01 06:32:45;;;;;;;29.17;17.83;;;;;;;11.11;53.62;98921.03;5050124;28;20033;-71
2022/05/01 06:35:11;;;;;;;24.38;15.13;;;;;;;11.26;53.30;98925.56;5050713;28;20059;-70
2022/05/01 06:37:37;;;;;;;27.77;16.95;;;;;;;11.35;52.96;98907.34;5050740;28;20025;-70
2022/05/01 06:40:04;;;;;;;25.30;16.42;;;;;;;11.42;53.26;98918.00;5048751;28;20029;-70
2022/05/01 06:42:32;;;;;;;26.35;16.92;;;;;;;11.48;52.93;98914.09;5050822;28;20071;-70
2022/05/01 06:44:57;;;;;;;25.40;16.35;;;;;;;11.59;52.71;98921.13;5050345;28;20055;-70
2022/05/01 06:47:22;;;;;;;23.63;15.88;;;;;;;11.73;52.77;98921.22;5050571;28;20025;-70
2022/05/01 06:49:48;;;;;;;23.48;14.57;;;;;;;11.89;52.21;98926.53;5049667;28;20033;-70
2022/05/01 06:52:18;;;;;;;22.77;15.25;;;;;;;12.00;52.05;98916.28;5048523;28;20049;-70
2022/05/01 06:54:44;;;;;;;20.42;13.95;;;;;;;12.11;51.92;98926.00;5049826;28;20021;-70
2022/05/01 06:57:09;;;;;;;21.58;15.13;;;;;;;12.24;51.28;98915.41;5048568;28;20409;-70
2022/05/01 06:59:35;;;;;;;22.13;14.43;;;;;;;12.38;51.56;98916.31;5050743;28;20048;-70
2022/05/01 07:02:00;;;;;;;22.55;14.13;;;;;;;12.51;51.21;98920.25;5050136;28;20031;-70
2022/05/01 07:04:25;;;;;;;20.48;12.10;;;;;;;12.69;51.19;98918.59;5050115;28;20025;-70
2022/05/01 07:06:51;;;;;;;19.05;11.55;;;;;;;12.86;50.81;98912.53;5049404;28;20064;-70
2022/05/01 07:09:16;;;;;;;19.55;12.68;;;;;;;13.03;50.49;98912.00;5050280;28;20017;-69
2022/05/01 07:11:42;;;;;;;19.80;12.38;;;;;;;13.21;50.49;98917.75;5050760;28;20032;-70
2022/05/01 07:14:07;;;;;;;17.92;12.43;;;;;;;13.36;50.15;98909.19;5049747;28;20453;-70
2022/05/01 07:16:33;;;;;;;17.10;11.63;;;;;;;13.49;49.93;98915.06;5049476;28;20029;-70
2022/05/01 07:18:58;;;;;;;16.77;12.77;;;;;;;13.66;49.91;98918.03;5050531;28;20036;-70
2022/05/01 07:21:24;;;;;;;17.92;12.50;;;;;;;13.84;49.47;98915.50;5050193;28;20028;-71
2022/05/01 07:23:49;;;;;;;16.65;10.98;;;;;;;13.94;49.46;98920.81;5049728;28;20040;-70
2022/05/01 07:26:18;;;;;;;19.75;12.32;;;;;;;13.98;48.73;98916.31;5046055;28;20029;-70
2022/05/01 07:28:44;;;;;;;18.23;11.48;;;;;;;14.03;48.61;98914.56;5049973;28;20029;-69
2022/05/01 07:31:09;;;;;;;17.40;11.70;;;;;;;14.09;48.52;98905.03;5049640;28;20436;-70
2022/05/01 07:33:34;;;;;;;15.43;11.93;;;;;;;14.18;48.63;98907.91;5046988;28;20099;-70
2022/05/01 07:36:00;;;;;;;18.55;12.93;;;;;;;14.28;48.55;98902.97;5049000;28;20033;-70
2022/05/01 07:38:26;;;;;;;15.73;10.77;;;;;;;14.40;48.48;98899.66;5049855;28;20033;-70
2022/05/01 07:40:52;;;;;;;15.25;10.15;;;;;;;14.52;48.02;98909.34;5049916;28;20504;-70
2022/05/01 07:43:18;;;;;;;20.85;11.02;;;;;;;14.53;47.87;98898.00;5048248;28;20021;-70
2022/05/01 07:45:43;;;;;;;15.20;10.45;;;;;;;14.61;47.34;98907.50;5049001;28;20095;-70
2022/05/01 07:48:09;;;;;;;14.38;9.98;;;;;;;14.72;47.41;98908.09;5048329;28;20068;-71
2022/05/01 07:50:34;;;;;;;14.10;9.90;;;;;;;14.86;46.92;98900.56;5047042;28;20039;-70
2022/05/01 07:52:59;;;;;;;15.95;11.23;;;;;;;14.90;46.65;98903.50;5048499;28;20027;-70
2022/05/01 07:55:25;;;;;;;18.77;11.30;;;;;;;14.96;46.26;98904.19;5048120;28;20028;-70
2022/05/01 07:57:50;;;;;;;15.45;10.23;;;;;;;15.06;46.49;98892.09;5049713;28;20028;-70
2022/05/01 08:00:16;;;;;;;16.17;10.98;;;;;;;15.17;46.49;98902.56;5048745;28;20079;-70
2022/05/01 08:05:27;;;;;;;17.20;10.68;;;;;;;15.33;45.77;98891.06;5049193;28;20071;-70
2022/05/01 08:07:53;;;;;;;15.60;10.40;;;;;;;15.47;45.88;98889.03;5052953;28;20025;-70
2022/05/01 08:10:19;;;;;;;14.60;10.40;;;;;;;15.61;45.80;98891.69;5052857;28;20060;-70
2022/05/01 08:12:45;;;;;;;17.20;11.25;;;;;;;15.76;45.41;98890.44;5053290;28;20470;-71
2022/05/01 08:15:10;;;;;;;15.27;10.77;;;;;;;15.85;45.50;98886.91;5052265;28;20029;-70
2022/05/01 08:17:36;;;;;;;16.83;10.02;;;;;;;15.93;45.42;98892.47;5052995;28;20457;-70
2022/05/01 08:22:45;;;;;;;14.32;10.25;;;;;;;16.17;44.59;98882.94;5053355;28;20536;-70
2022/05/01 08:25:11;;;;;;;14.90;10.63;;;;;;;16.21;43.83;98889.47;5051867;28;20116;-70
2022/05/01 08:27:39;;;;;;;13.93;9.88;;;;;;;16.28;43.89;98880.66;5052411;28;20060;-70
2022/05/01 08:30:05;;;;;;;17.88;11.07;;;;;;;16.33;43.29;98885.22;5052375;28;20048;-70
2022/05/01 08:32:31;;;;;;;15.77;11.13;;;;;;;16.30;43.15;98875.63;5051828;28;20025;-70
2022/05/01 08:34:57;;;;;;;14.60;10.55;;;;;;;16.40;43.93;98879.22;5052708;28;20111;-70
2022/05/01 08:37:22;;;;;;;14.35;11.13;;;;;;;16.52;43.77;98876.59;5052558;28;20115;-70
2022/05/01 08:39:47;;;;;;;16.45;10.82;;;;;;;16.68;43.71;98868.63;5052245;28;20457;-71
2022/05/01 08:42:13;;;;;;;16.40;11.13;;;;;;;16.77;42.92;98865.84;5051329;28;20536;-72
2022/05/01 08:44:38;;;;;;;18.13;11.88;;;;;;;16.82;42.92;98874.78;5050578;28;20061;-72
2022/05/01 08:47:25;;;;;;;20.40;14.25;;;;;;;16.86;43.21;98874.97;5052566;28;20438;-72
2022/05/01 08:49:58;;;;;;;16.08;11.63;;;;;;;16.92;42.81;98868.09;5052006;28;20465;-72
2022/05/01 08:52:26;;;;;;;16.05;10.90;;;;;;;17.03;42.35;98867.78;5052260;28;20078;-72
2022/05/01 08:54:53;;;;;;;19.02;13.55;;;;;;;17.09;41.98;98866.47;5054185;28;20461;-73
2022/05/01 08:57:21;;;;;;;40.13;24.40;;;;;;;17.14;41.85;98863.53;5055595;28;20098;-73
2022/05/01 08:59:52;;;;;;;18.33;12.97;;;;;;;17.30;41.76;98863.00;5052997;28;20048;-73
2022/05/01 09:02:17;;;;;;;16.45;10.02;;;;;;;17.43;41.60;98861.16;5052137;28;20275;-72
2022/05/01 09:04:43;;;;;;;14.18;9.18;;;;;;;17.62;42.28;98867.09;5046353;28;20086;-72
2022/05/01 09:07:10;;;;;;;14.35;9.27;;;;;;;17.84;41.33;98856.88;5054763;28;20397;-70
2022/05/01 09:09:35;;;;;;;38.58;26.52;;;;;;;18.03;41.04;98863.97;5051606;28;20025;-72
2022/05/01 09:14:46;;;;;;;14.23;9.55;;;;;;;18.26;40.04;98856.13;5050325;28;20067;-72
2022/05/01 09:17:13;;;;;;;16.30;9.15;;;;;;;18.31;39.88;98847.59;5050182;28;20033;-72
2022/05/01 09:19:39;;;;;;;15.18;10.00;;;;;;;18.40;39.90;98850.31;5051435;28;20037;-73
2022/05/01 09:22:05;;;;;;;14.02;9.45;;;;;;;18.37;39.15;98846.25;5049253;28;20159;-70
2022/05/01 09:24:31;;;;;;;15.27;10.27;;;;;;;18.51;39.62;98840.41;5049741;28;20506;-70
2022/05/01 09:26:58;;;;;;;14.77;9.55;;;;;;;18.60;38.88;98837.56;5049728;28;20040;-71
2022/05/01 09:29:25;;;;;;;13.75;9.18;;;;;;;18.62;38.56;98846.34;5046921;28;20035;-70
2022/05/01 09:31:52;;;;;;;13.07;9.32;;;;;;;18.70;38.73;98836.34;5048501;28;20063;-70
2022/05/01 09:34:23;;;;;;;15.60;9.70;;;;;;;18.79;38.52;98834.25;5048632;28;20029;-70
2022/05/01 09:36:48;;;;;;;14.02;9.75;;;;;;;18.83;38.53;98837.19;5049087;28;20098;-71
2022/05/01 09:39:19;;;;;;;14.57;10.07;;;;;;;18.90;38.76;98832.69;5049267;28;20488;-71
2022/05/01 09:41:44;;;;;;;14.05;9.02;;;;;;;19.02;38.42;98831.13;5049035;28;20034;-71
2022/05/01 09:44:18;;;;;;;13.20;8.40;;;;;;;19.18;38.58;98828.50;5046408;28;20462;-70
2022/05/01 09:46:48;;;;;;;14.80;9.82;;;;;;;19.33;38.84;98824.22;5049108;28;20025;-70
2022/05/01 09:49:18;;;;;;;9.95;7.40;;;;;;;19.45;38.12;98820.63;5050402;28;20076;-71
2022/05/01 09:52:05;;;;;;;11.13;7.43;;;;;;;19.54;36.40;98824.13;5050565;28;21687;-70
2022/05/01 09:54:30;;;;;;;9.70;7.38;;;;;;;19.60;36.78;98821.91;5045683;28;20485;-70
2022/05/01 09:56:58;;;;;;;10.48;7.05;;;;;;;19.67;36.94;98821.34;5048744;28;20104;-71
2022/05/01 09:59:27;;;;;;;9.40;6.05;;;;;;;19.72;36.25;98813.56;5048686;28;20029;-70
2022/05/01 10:01:55;;;;;;;9.02;6.47;;;;;;;19.89;36.50;98817.31;5048679;28;20036;-70
2022/05/01 10:04:23;;;;;;;10.05;7.60;;;;;;;20.07;35.58;98806.72;5048233;28;20021;-71
2022/05/01 10:06:51;;;;;;;10.80;7.13;;;;;;;20.23;36.02;98813.16;5049467;28;20033;-70
2022/05/01 10:09:17;;;;;;;9.90;6.47;;;;;;;20.35;35.34;98809.53;5049575;28;20024;-70
2022/05/01 10:11:44;;;;;;;9.60;6.60;;;;;;;20.35;35.20;98811.50;5048198;28;20028;-69
2022/05/01 10:14:10;;;;;;;7.30;5.65;;;;;;;20.46;35.41;98814.59;5046122;28;20433;-69
2022/05/01 10:16:38;;;;;;;10.30;6.90;;;;;;;20.67;35.60;98804.06;5048291;28;20025;-70
2022/05/01 10:19:05;;;;;;;9.45;6.65;;;;;;;20.79;35.11;98806.00;5048548;28;20539;-69
2022/05/01 10:21:32;;;;;;;9.73;7.40;;;;;;;20.96;35.46;98806.84;5045850;28;20481;-71
2022/05/01 10:23:57;;;;;;;8.05;6.43;;;;;;;21.08;33.74;98803.16;5045815;28;20059;-70
2022/05/01 10:26:39;;;;;;;9.25;7.10;;;;;;;21.06;33.71;98802.72;5047697;28;20060;-71
2022/05/01 10:29:32;;;;;;;8.90;5.50;;;;;;;21.22;33.49;98805.50;5049612;28;20016;-70
2022/05/01 10:32:40;;;;;;;9.05;6.03;;;;;;;21.39;32.98;98801.53;5043951;28;20021;-70
2022/05/01 10:35:25;;;;;;;7.05;5.40;;;;;;;21.57;32.98;98801.97;5046990;28;20016;-71
2022/05/01 10:38:14;;;;;;;8.57;5.32;;;;;;;21.69;32.49;98790.75;5047934;28;20021;-71
2022/05/01 10:40:49;;;;;;;8.40;5.65;;;;;;;21.91;32.98;98796.81;5042346;28;20040;-70
2022/05/01 10:43:36;;;;;;;7.57;5.57;;;;;;;22.16;32.91;98790.97;5023358;28;20049;-70
2022/05/01 10:46:22;;;;;;;6.55;5.20;;;;;;;22.18;31.28;98790.59;5017874;28;20720;-70
2022/05/01 10:48:49;;;;;;;8.00;5.35;;;;;;;22.11;29.68;98797.66;5025417;28;20077;-71
2022/05/01 10:51:30;;;;;;;7.35;5.28;;;;;;;21.96;29.33;98790.16;5024169;28;20982;-70
2022/05/01 10:54:10;;;;;;;8.18;5.22;;;;;;;21.89;30.58;98784.41;5021166;28;20026;-70
2022/05/01 10:56:37;;;;;;;5.93;5.15;;;;;;;21.75;30.61;98790.47;5022547;28;20077;-69
2022/05/01 10:59:29;;;;;;;6.43;5.25;;;;;;;21.72;30.58;98786.41;5025000;28;20021;-70
2022/05/01 11:01:56;;;;;;;6.07;4.32;;;;;;;21.67;29.45;98786.69;5023659;28;20124;-68
2022/05/01 11:04:23;;;;;;;7.70;4.85;;;;;;;21.55;29.92;98782.81;5016114;28;20037;-67
2022/05/01 11:06:56;;;;;;;6.38;5.38;;;;;;;21.54;29.82;98791.53;5016391;28;20711;-67
2022/05/01 11:09:22;;;;;;;9.68;5.80;;;;;;;21.41;29.23;98780.47;5024003;28;20090;-76
2022/05/01 11:11:56;;;;;;;5.55;4.47;;;;;;;21.51;29.36;98781.94;5025657;28;20034;-76
2022/05/01 11:14:38;;;;;;;7.75;5.40;;;;;;;21.65;29.59;98783.44;5024454;28;20033;-79
2022/05/01 11:17:04;;;;;;;7.30;5.45;;;;;;;21.71;28.48;98780.03;5034786;28;20033;-77
2022/05/01 11:19:42;;;;;;;6.70;5.15;;;;;;;21.58;27.33;98777.69;5025232;28;20044;-78
2022/05/01 11:22:08;;;;;;;6.25;5.00;;;;;;;21.58;28.25;98783.28;5025485;28;20257;-80
2022/05/01 11:24:44;;;;;;;6.93;5.07;;;;;;;21.56;27.61;98773.28;5019337;28;20091;-82
2022/05/01 11:27:18;;;;;;;7.15;5.35;;;;;;;21.60;27.45;98778.13;5017307;28;20120;-81
2022/05/01 11:30:26;;;;;;;7.38;4.97;;;;;;;21.58;27.86;98778.47;5019257;28;20040;-82
2022/05/01 11:33:18;;;;;;;7.32;5.25;;;;;;;21.50;26.88;98779.47;5026754;28;20033;-81
2022/05/01 11:36:00;;;;;;;7.70;5.60;;;;;;;21.52;27.87;98775.16;5025784;28;20049;-77
2022/05/01 11:38:39;;;;;;;7.68;5.25;;;;;;;21.63;27.96;98774.63;5026273;28;20021;-78
2022/05/01 11:41:06;;;;;;;8.70;5.43;;;;;;;21.74;28.14;98763.72;5039325;28;20032;-80
2022/05/01 11:43:34;;;;;;;7.05;5.57;;;;;;;21.90;27.39;98774.84;5030601;28;20029;-82
2022/05/01 11:46:01;;;;;;;7.43;5.28;;;;;;;21.94;27.90;98770.16;5019782;28;20053;-82
2022/05/01 11:48:27;;;;;;;11.13;7.18;;;;;;;21.93;27.79;98774.13;5020073;28;20061;-81